createdAt,value
2017-08-14T00:02:12.615Z,14.28
2017-08-14T00:04:42.128Z,14.24
2017-08-14T00:07:11.876Z,14.34
2017-08-14T00:09:41.132Z,14.33
2017-08-14T00:12:10.476Z,14.35
2017-08-14T00:14:40.920Z,14.36
2017-08-14T00:17:10.361Z,14.32
2017-08-14T00:19:40.386Z,14.30
2017-08-14T00:22:10.446Z,14.29
2017-08-14T00:24:39.684Z,14.26
2017-08-14T00:27:10.928Z,14.25
2017-08-14T00:29:49.482Z,14.21
2017-08-14T00:32:20.245Z,14.21
2017-08-14T00:34:49.848Z,14.12
2017-08-14T00:37:19.519Z,14.12
2017-08-14T00:39:49.465Z,14.09
2017-08-14T00:42:20.127Z,14.09
2017-08-14T00:44:49.982Z,14.07
2017-08-14T00:47:19.991Z,14.06
2017-08-14T00:49:49.261Z,14.02
2017-08-14T00:52:19.366Z,13.95
2017-08-14T00:54:48.938Z,13.95
2017-08-14T00:57:18.463Z,13.88
2017-08-14T00:59:48.915Z,13.88
2017-08-14T01:02:20.290Z,13.87
2017-08-14T01:04:49.734Z,13.83
2017-08-14T01:07:19.368Z,13.82
2017-08-14T01:09:48.990Z,13.81
2017-08-14T01:12:18.810Z,13.80
2017-08-14T01:14:48.854Z,13.80
2017-08-14T01:17:18.552Z,13.77
2017-08-14T01:19:48.531Z,13.71
2017-08-14T01:22:18.198Z,13.75
2017-08-14T01:24:47.691Z,13.72
2017-08-14T01:27:17.588Z,13.67
2017-08-14T01:29:47.312Z,13.59
2017-08-14T01:32:17.795Z,13.60
2017-08-14T01:34:56.202Z,13.57
2017-08-14T01:37:26.290Z,13.55
2017-08-14T01:39:55.660Z,13.55
2017-08-14T01:42:25.633Z,13.49
2017-08-14T01:44:55.807Z,13.50
2017-08-14T01:47:26.185Z,13.49
2017-08-14T01:49:56.287Z,13.48
2017-08-14T01:52:27.083Z,13.48
2017-08-14T01:54:56.967Z,13.49
2017-08-14T01:57:27.065Z,13.30
2017-08-14T01:59:56.803Z,13.34
2017-08-14T02:02:27.240Z,13.34
2017-08-14T02:04:56.662Z,13.33
2017-08-14T02:07:29.434Z,13.36
2017-08-14T02:09:59.147Z,13.35
2017-08-14T02:12:31.682Z,13.34
2017-08-14T02:15:01.351Z,13.31
2017-08-14T02:17:32.249Z,13.33
2017-08-14T02:20:02.654Z,13.32
2017-08-14T02:22:35.978Z,13.30
2017-08-14T02:25:05.546Z,13.19
2017-08-14T02:27:35.176Z,13.20
2017-08-14T02:30:05.061Z,13.20
2017-08-14T02:32:34.595Z,13.20
2017-08-14T02:35:03.983Z,13.18
2017-08-14T02:37:33.690Z,13.15
2017-08-14T02:40:03.531Z,13.17
2017-08-14T02:42:32.979Z,13.07
2017-08-14T02:45:02.884Z,12.97
2017-08-14T02:47:32.567Z,12.90
2017-08-14T02:50:01.962Z,12.88
2017-08-14T02:52:31.475Z,12.88
2017-08-14T02:55:01.067Z,12.84
2017-08-14T02:57:31.475Z,12.26
2017-08-14T03:00:01.825Z,12.51
2017-08-14T03:02:57.340Z,12.59
2017-08-14T03:05:30.229Z,12.63
2017-08-14T03:07:59.690Z,12.54
2017-08-14T03:10:30.750Z,12.64
2017-08-14T03:13:00.329Z,12.71
2017-08-14T03:15:31.282Z,12.77
2017-08-14T03:18:01.181Z,12.82
2017-08-14T03:20:31.815Z,12.87
2017-08-14T03:23:01.408Z,12.87
2017-08-14T03:25:31.420Z,12.83
2017-08-14T03:28:00.694Z,12.83
2017-08-14T03:30:31.070Z,12.77
2017-08-14T03:33:00.959Z,12.77
2017-08-14T03:35:31.294Z,12.79
2017-08-14T03:38:00.841Z,12.80
2017-08-14T03:40:31.311Z,12.84
2017-08-14T03:43:00.847Z,12.82
2017-08-14T03:45:31.417Z,12.78
2017-08-14T03:48:01.404Z,12.76
2017-08-14T03:50:32.062Z,12.74
2017-08-14T03:53:01.614Z,12.76
2017-08-14T03:55:31.948Z,12.70
2017-08-14T03:58:01.338Z,12.74
2017-08-14T04:00:31.251Z,12.74
2017-08-14T04:03:00.647Z,12.73
2017-08-14T04:05:33.134Z,12.75
2017-08-14T04:08:04.111Z,12.71
2017-08-14T04:10:33.658Z,12.76
2017-08-14T04:13:03.271Z,12.75
2017-08-14T04:15:33.063Z,12.72
2017-08-14T04:18:02.682Z,12.75
2017-08-14T04:20:32.106Z,12.73
2017-08-14T04:23:02.922Z,12.57
2017-08-14T04:25:32.218Z,12.70
2017-08-14T04:28:03.801Z,12.71
2017-08-14T04:33:12.225Z,12.64
2017-08-14T04:35:41.622Z,12.41
2017-08-14T04:38:11.150Z,12.41
2017-08-14T04:40:40.911Z,12.65
2017-08-14T04:43:10.442Z,12.74
2017-08-14T04:45:40.006Z,12.82
2017-08-14T04:48:11.115Z,12.88
2017-08-14T04:50:40.474Z,12.89
2017-08-14T04:53:09.788Z,12.85
2017-08-14T04:55:39.220Z,12.86
2017-08-14T04:58:08.373Z,12.95
2017-08-14T05:00:37.724Z,12.90
2017-08-14T05:03:07.523Z,12.77
2017-08-14T05:05:36.921Z,12.94
2017-08-14T05:08:06.222Z,13.05
2017-08-14T05:10:36.320Z,13.13
2017-08-14T05:13:05.723Z,13.17
2017-08-14T05:15:34.914Z,13.20
2017-08-14T05:18:04.912Z,13.28
2017-08-14T05:20:34.051Z,13.29
2017-08-14T05:23:03.301Z,13.35
2017-08-14T05:25:33.031Z,13.42
2017-08-14T05:28:02.475Z,13.49
2017-08-14T05:30:33.538Z,13.54
2017-08-14T05:33:03.316Z,13.55
2017-08-14T05:35:32.527Z,13.66
2017-08-14T05:38:01.723Z,13.60
2017-08-14T05:40:32.582Z,13.76
2017-08-14T05:43:02.151Z,13.83
2017-08-14T05:45:31.931Z,13.81
2017-08-14T05:48:02.184Z,13.92
2017-08-14T05:50:34.246Z,14.01
2017-08-14T05:53:03.562Z,14.11
2017-08-14T05:55:33.006Z,14.05
2017-08-14T05:58:02.190Z,14.05
2017-08-14T06:00:32.310Z,14.36
2017-08-14T06:03:01.957Z,14.37
2017-08-14T06:05:32.290Z,14.49
2017-08-14T06:08:01.651Z,14.48
2017-08-14T06:10:33.199Z,14.40
2017-08-14T06:13:02.406Z,14.46
2017-08-14T06:15:33.210Z,14.72
2017-08-14T06:18:02.789Z,14.72
2017-08-14T06:20:32.871Z,14.75
2017-08-14T06:23:02.022Z,15.10
2017-08-14T06:25:32.354Z,14.91
2017-08-14T06:28:01.522Z,15.06
2017-08-14T06:30:32.247Z,14.94
2017-08-14T06:33:02.550Z,14.86
2017-08-14T06:35:32.827Z,15.34
2017-08-14T06:38:02.188Z,15.25
2017-08-14T06:40:32.066Z,15.34
2017-08-14T06:43:01.251Z,15.10
2017-08-14T06:45:32.515Z,15.40
2017-08-14T06:48:02.666Z,15.62
2017-08-14T06:50:56.376Z,15.70
2017-08-14T06:53:27.031Z,16.06
2017-08-14T06:55:56.376Z,16.11
2017-08-14T06:58:29.406Z,16.53
2017-08-14T07:00:59.589Z,16.22
2017-08-14T07:03:30.717Z,16.26
2017-08-14T07:06:00.023Z,16.37
2017-08-14T07:08:30.456Z,16.32
2017-08-14T07:10:59.840Z,16.90
2017-08-14T07:13:30.478Z,16.27
2017-08-14T07:16:04.410Z,16.46
2017-08-14T07:18:33.650Z,16.79
2017-08-14T07:21:02.856Z,17.23
2017-08-14T07:23:33.215Z,17.74
2017-08-14T07:26:02.431Z,17.64
2017-08-14T07:28:31.741Z,17.74
2017-08-14T07:31:01.185Z,17.70
2017-08-14T07:33:31.283Z,17.70
2017-08-14T07:36:00.427Z,18.01
2017-08-14T07:38:31.875Z,17.83
2017-08-14T07:41:01.047Z,18.29
2017-08-14T07:43:31.557Z,18.44
2017-08-14T07:46:01.058Z,18.29
2017-08-14T07:48:31.951Z,18.31
2017-08-14T07:51:01.397Z,17.49
2017-08-14T07:53:31.730Z,18.43
2017-08-14T07:56:00.988Z,18.60
2017-08-14T07:58:31.746Z,18.13
2017-08-14T08:01:03.057Z,19.18
2017-08-14T08:03:32.242Z,19.07
2017-08-14T08:06:01.885Z,18.79
2017-08-14T08:08:32.622Z,19.43
2017-08-14T08:11:01.984Z,19.76
2017-08-14T08:13:31.261Z,20.27
2017-08-14T08:16:01.205Z,19.56
2017-08-14T08:18:31.871Z,19.40
2017-08-14T08:21:01.162Z,19.12
2017-08-14T08:23:31.596Z,19.52
2017-08-14T08:26:01.799Z,20.81
2017-08-14T08:28:31.730Z,19.49
2017-08-14T08:31:01.935Z,20.00
2017-08-14T08:33:31.682Z,21.02
2017-08-14T08:36:01.600Z,20.26
2017-08-14T08:38:31.408Z,21.35
2017-08-14T08:41:01.998Z,21.27
2017-08-14T08:43:31.705Z,21.27
2017-08-14T08:46:01.257Z,21.77
2017-08-14T08:48:31.636Z,22.23
2017-08-14T08:51:02.179Z,22.04
2017-08-14T08:53:32.607Z,22.55
2017-08-14T08:56:01.995Z,22.78
2017-08-14T08:58:32.014Z,22.66
2017-08-14T09:01:01.963Z,22.78
2017-08-14T09:03:32.798Z,22.69
2017-08-14T09:06:02.101Z,23.04
2017-08-14T09:08:31.677Z,22.95
2017-08-14T09:11:00.932Z,22.92
2017-08-14T09:13:31.702Z,22.62
2017-08-14T09:16:01.341Z,22.01
2017-08-14T09:18:31.625Z,22.59
2017-08-14T09:21:00.942Z,21.90
2017-08-14T09:23:33.361Z,23.11
2017-08-14T09:26:02.622Z,23.23
2017-08-14T09:28:32.108Z,23.53
2017-08-14T09:31:02.109Z,23.30
2017-08-14T09:33:31.501Z,22.84
2017-08-14T09:36:01.242Z,23.61
2017-08-14T09:38:34.068Z,23.24
2017-08-14T09:41:03.794Z,24.09
2017-08-14T09:43:32.980Z,24.29
2017-08-14T09:46:02.659Z,23.46
2017-08-14T09:48:32.058Z,24.06
2017-08-14T09:51:02.062Z,24.90
2017-08-14T09:53:31.522Z,24.73
2017-08-14T09:56:01.059Z,24.67
2017-08-14T09:58:31.286Z,24.53
2017-08-14T10:01:00.827Z,24.88
2017-08-14T10:03:30.036Z,24.95
2017-08-14T10:06:00.582Z,25.14
2017-08-14T10:08:35.239Z,25.06
2017-08-14T10:11:05.626Z,25.18
2017-08-14T10:13:45.059Z,24.61
2017-08-14T10:16:19.788Z,24.91
2017-08-14T10:18:49.739Z,25.05
2017-08-14T10:21:31.828Z,25.50
2017-08-14T10:24:20.269Z,25.36
2017-08-14T10:26:58.313Z,25.19
2017-08-14T10:29:29.031Z,25.49
2017-08-14T10:31:58.366Z,26.02
2017-08-14T10:34:28.872Z,25.37
2017-08-14T10:36:59.714Z,24.85
2017-08-14T10:39:30.171Z,25.11
2017-08-14T10:41:59.415Z,25.18
2017-08-14T10:44:30.936Z,25.55
2017-08-14T10:47:00.238Z,25.83
2017-08-14T10:49:31.287Z,26.16
2017-08-14T10:52:01.006Z,25.79
2017-08-14T10:54:31.520Z,25.54
2017-08-14T10:57:00.866Z,25.30
2017-08-14T10:59:32.053Z,26.18
2017-08-14T11:02:02.558Z,26.38
2017-08-14T11:04:31.727Z,26.61
2017-08-14T11:07:01.601Z,26.89
2017-08-14T11:09:31.790Z,24.79
2017-08-14T11:12:01.046Z,25.26
2017-08-14T11:14:31.654Z,25.83
2017-08-14T11:17:00.916Z,25.20
2017-08-14T11:19:33.532Z,26.64
2017-08-14T11:22:04.296Z,26.51
2017-08-14T11:24:33.446Z,26.03
2017-08-14T11:27:02.715Z,26.53
2017-08-14T11:29:32.374Z,26.43
2017-08-14T11:32:01.576Z,26.19
2017-08-14T11:34:31.950Z,26.04
2017-08-14T11:37:01.411Z,26.67
2017-08-14T11:39:32.610Z,25.82
2017-08-14T11:42:01.746Z,26.62
2017-08-14T11:44:32.071Z,25.51
2017-08-14T11:47:01.257Z,26.89
2017-08-14T11:49:32.201Z,26.56
2017-08-14T11:52:01.820Z,26.33
2017-08-14T11:54:32.444Z,25.75
2017-08-14T11:57:01.649Z,25.50
2017-08-14T11:59:33.084Z,26.44
2017-08-14T12:02:02.283Z,27.12
2017-08-14T12:04:32.039Z,26.09
2017-08-14T12:07:01.927Z,26.07
2017-08-14T12:09:34.846Z,26.36
2017-08-14T12:12:04.544Z,27.08
2017-08-14T12:14:33.740Z,27.21
2017-08-14T12:17:03.050Z,27.22
2017-08-14T12:19:32.700Z,27.56
2017-08-14T12:22:04.299Z,28.01
2017-08-14T12:24:33.809Z,27.72
2017-08-14T12:27:02.995Z,27.54
2017-08-14T12:29:32.190Z,27.46
2017-08-14T12:32:01.675Z,27.00
2017-08-14T12:34:32.224Z,27.33
2017-08-14T12:37:01.423Z,27.88
2017-08-14T12:39:33.803Z,27.12
2017-08-14T12:42:04.258Z,26.31
2017-08-14T12:44:33.436Z,27.36
2017-08-14T12:47:02.925Z,27.89
2017-08-14T12:49:32.128Z,27.96
2017-08-14T12:52:01.421Z,27.06
2017-08-14T12:54:34.189Z,25.63
2017-08-14T12:57:03.354Z,27.30
2017-08-14T12:59:32.888Z,27.41
2017-08-14T13:02:02.356Z,26.99
2017-08-14T13:04:31.915Z,27.73
2017-08-14T13:07:01.584Z,26.75
2017-08-14T13:09:35.333Z,27.31
2017-08-14T13:12:04.552Z,26.98
2017-08-14T13:14:33.806Z,27.46
2017-08-14T13:17:03.277Z,26.42
2017-08-14T13:19:32.534Z,27.43
2017-08-14T13:22:01.753Z,27.67
2017-08-14T13:24:32.575Z,28.05
2017-08-14T13:27:02.111Z,27.79
2017-08-14T13:29:32.922Z,28.63
2017-08-14T13:32:02.409Z,27.95
2017-08-14T13:34:32.619Z,26.72
2017-08-14T13:37:01.916Z,26.88
2017-08-14T13:39:33.702Z,26.36
2017-08-14T13:42:02.899Z,25.61
2017-08-14T13:44:33.086Z,25.95
2017-08-14T13:47:02.543Z,26.51
2017-08-14T13:49:39.627Z,26.62
2017-08-14T13:52:08.942Z,26.74
2017-08-14T13:54:38.506Z,27.18
2017-08-14T13:57:07.730Z,27.39
2017-08-14T13:59:36.913Z,26.89
2017-08-14T14:02:06.354Z,27.34
2017-08-14T14:04:35.642Z,27.18
2017-08-14T14:07:04.852Z,26.82
2017-08-14T14:09:34.306Z,26.28
2017-08-14T14:12:03.554Z,26.76
2017-08-14T14:14:32.714Z,26.45
2017-08-14T14:17:10.499Z,26.13
2017-08-14T14:19:39.670Z,25.30
2017-08-14T14:22:10.518Z,25.89
2017-08-14T14:24:39.690Z,25.69
2017-08-14T14:27:09.026Z,26.39
2017-08-14T14:29:38.559Z,26.54
2017-08-14T14:32:07.791Z,26.34
2017-08-14T14:34:36.959Z,26.43
2017-08-14T14:37:06.468Z,27.15
2017-08-14T14:39:35.682Z,27.54
2017-08-14T14:42:04.931Z,27.53
2017-08-14T14:44:34.382Z,27.25
2017-08-14T14:47:03.742Z,27.61
2017-08-14T14:49:32.906Z,27.33
2017-08-14T14:52:02.495Z,27.37
2017-08-14T14:54:31.631Z,26.89
2017-08-14T14:57:00.842Z,26.42
2017-08-14T14:59:30.462Z,26.06
2017-08-14T15:01:59.671Z,25.95
2017-08-14T15:04:28.867Z,25.97
2017-08-14T15:06:58.370Z,26.22
2017-08-14T15:09:27.949Z,26.22
2017-08-14T15:11:57.188Z,26.52
2017-08-14T15:14:27.613Z,26.40
2017-08-14T15:16:56.788Z,25.93
2017-08-14T15:19:26.842Z,26.37
2017-08-14T15:21:56.302Z,26.17
2017-08-14T15:24:25.481Z,26.31
2017-08-14T15:26:54.667Z,25.76
2017-08-14T15:29:30.102Z,25.83
2017-08-14T15:31:59.539Z,25.67
2017-08-14T15:34:28.775Z,25.90
2017-08-14T15:36:58.914Z,25.55
2017-08-14T15:39:28.200Z,25.95
2017-08-14T15:41:57.457Z,26.13
2017-08-14T15:44:26.919Z,26.25
2017-08-14T15:46:56.130Z,25.70
2017-08-14T15:49:25.475Z,26.05
2017-08-14T15:51:54.941Z,25.59
2017-08-14T15:54:24.468Z,26.06
2017-08-14T15:56:53.654Z,25.93
2017-08-14T15:59:23.227Z,25.65
2017-08-14T16:01:53.752Z,25.53
2017-08-14T16:04:23.516Z,25.86
2017-08-14T16:06:53.016Z,25.50
2017-08-14T16:09:22.218Z,25.69
2017-08-14T16:11:51.469Z,25.38
2017-08-14T16:14:22.746Z,25.39
2017-08-14T16:16:51.899Z,25.25
2017-08-14T16:19:29.779Z,25.23
2017-08-14T16:21:59.246Z,25.21
2017-08-14T16:24:29.179Z,25.35
2017-08-14T16:26:58.803Z,25.10
2017-08-14T16:29:28.328Z,24.92
2017-08-14T16:31:57.699Z,24.88
2017-08-14T16:34:26.832Z,24.93
2017-08-14T16:36:56.572Z,24.67
2017-08-14T16:39:25.887Z,24.70
2017-08-14T16:41:55.068Z,24.73
2017-08-14T16:44:28.171Z,24.75
2017-08-14T16:46:57.335Z,24.57
2017-08-14T16:49:27.811Z,24.40
2017-08-14T16:51:57.265Z,24.33
2017-08-14T16:54:26.505Z,24.35
2017-08-14T16:56:55.682Z,24.22
2017-08-14T16:59:25.133Z,24.17
2017-08-14T17:01:54.546Z,24.10
2017-08-14T17:04:23.789Z,24.08
2017-08-14T17:06:53.334Z,24.14
2017-08-14T17:09:22.574Z,24.18
2017-08-14T17:11:53.106Z,24.27
2017-08-14T17:14:24.626Z,24.20
2017-08-14T17:16:54.063Z,23.97
2017-08-14T17:19:23.282Z,24.09
2017-08-14T17:21:56.483Z,24.02
2017-08-14T17:24:29.497Z,24.05
2017-08-14T17:27:00.416Z,23.77
2017-08-14T17:29:31.320Z,23.87
2017-08-14T17:32:04.643Z,23.65
2017-08-14T17:34:35.975Z,23.49
2017-08-14T17:37:09.519Z,23.57
2017-08-14T17:39:41.051Z,23.51
2017-08-14T17:42:11.017Z,23.27
2017-08-14T17:44:40.166Z,23.33
2017-08-14T17:47:09.448Z,23.28
2017-08-14T17:49:38.894Z,23.26
2017-08-14T17:52:08.790Z,23.36
2017-08-14T17:54:37.985Z,23.12
2017-08-14T17:57:08.928Z,23.03
2017-08-14T17:59:38.550Z,23.04
2017-08-14T18:02:09.181Z,23.03
2017-08-14T18:04:38.703Z,22.82
2017-08-14T18:07:07.990Z,23.04
2017-08-14T18:09:37.198Z,23.03
2017-08-14T18:12:06.762Z,22.70
2017-08-14T18:14:36.010Z,22.66
2017-08-14T18:17:05.306Z,22.79
2017-08-14T18:19:34.759Z,22.54
2017-08-14T18:22:03.924Z,22.61
2017-08-14T18:24:33.086Z,22.52
2017-08-14T18:27:02.530Z,22.57
2017-08-14T18:29:31.739Z,22.52
2017-08-14T18:32:00.961Z,22.40
2017-08-14T18:34:30.448Z,22.30
2017-08-14T18:36:59.884Z,22.24
2017-08-14T18:39:29.390Z,22.04
2017-08-14T18:41:58.945Z,21.96
2017-08-14T18:44:28.300Z,21.79
2017-08-14T18:46:57.591Z,21.78
2017-08-14T18:49:27.093Z,21.74
2017-08-14T18:51:56.303Z,21.54
2017-08-14T18:54:25.602Z,21.56
2017-08-14T18:56:55.051Z,21.57
2017-08-14T18:59:24.407Z,21.29
2017-08-14T19:01:53.701Z,21.36
2017-08-14T19:04:23.296Z,21.46
2017-08-14T19:06:53.003Z,21.16
2017-08-14T19:09:23.427Z,21.24
2017-08-14T19:11:51.892Z,21.33
2017-08-14T19:14:21.450Z,21.25
2017-08-14T19:16:50.690Z,21.25
2017-08-14T19:19:21.478Z,21.21
2017-08-14T19:21:51.418Z,21.16
2017-08-14T19:24:20.575Z,21.13
2017-08-14T19:29:18.055Z,21.04
2017-08-14T19:31:47.294Z,21.01
2017-08-14T19:34:18.477Z,20.99
2017-08-14T19:36:47.758Z,21.01
2017-08-14T19:39:17.026Z,21.01
2017-08-14T19:41:46.818Z,20.98
2017-08-14T19:44:17.219Z,20.92
2017-08-14T19:46:46.530Z,20.85
2017-08-14T19:49:16.002Z,20.82
2017-08-14T19:51:45.222Z,20.82
2017-08-14T19:54:14.451Z,20.79
2017-08-14T19:56:44.125Z,20.67
2017-08-14T19:59:13.358Z,20.72
2017-08-14T20:01:45.986Z,20.64
2017-08-14T20:04:18.307Z,20.63
2017-08-14T20:06:51.557Z,20.38
2017-08-14T20:09:31.239Z,20.51
2017-08-14T20:12:12.275Z,20.52
2017-08-14T20:14:42.931Z,20.56
2017-08-14T20:17:26.127Z,20.57
2017-08-14T20:19:56.461Z,20.39
2017-08-14T20:22:40.308Z,20.43
2017-08-14T20:25:32.050Z,20.44
2017-08-14T20:28:09.068Z,20.27
2017-08-14T20:30:46.071Z,20.28
2017-08-14T20:33:23.630Z,20.35
2017-08-14T20:36:07.039Z,20.37
2017-08-14T20:38:36.542Z,20.33
2017-08-14T20:41:06.308Z,20.22
2017-08-14T20:43:35.538Z,20.17
2017-08-14T20:46:04.746Z,20.19
2017-08-14T20:48:34.344Z,20.19
2017-08-14T20:51:03.589Z,20.05
2017-08-14T20:53:32.807Z,20.15
2017-08-14T20:56:02.255Z,20.15
2017-08-14T20:58:31.436Z,20.02
2017-08-14T21:01:00.703Z,19.77
2017-08-14T21:03:30.206Z,19.85
2017-08-14T21:06:00.003Z,19.90
2017-08-14T21:08:29.230Z,19.88
2017-08-14T21:10:58.901Z,19.96
2017-08-14T21:13:28.330Z,19.84
2017-08-14T21:15:57.514Z,19.83
2017-08-14T21:18:27.023Z,19.72
2017-08-14T21:20:56.398Z,19.60
2017-08-14T21:23:25.539Z,19.50
2017-08-14T21:25:56.415Z,19.41
2017-08-14T21:28:25.657Z,19.36
2017-08-14T21:30:54.794Z,19.39
2017-08-14T21:33:24.655Z,19.35
2017-08-14T21:35:53.845Z,19.33
2017-08-14T21:38:23.010Z,19.18
2017-08-14T21:40:52.470Z,19.16
2017-08-14T21:43:21.644Z,19.20
2017-08-14T21:45:50.829Z,19.12
2017-08-14T21:48:20.312Z,19.09
2017-08-14T21:50:49.633Z,19.14
2017-08-14T21:53:18.974Z,19.09
2017-08-14T21:55:48.986Z,19.19
2017-08-14T21:58:18.174Z,19.20
2017-08-14T22:00:47.310Z,18.90
2017-08-14T22:03:17.199Z,18.87
2017-08-14T22:05:46.588Z,18.88
2017-08-14T22:08:17.192Z,19.03
2017-08-14T22:10:46.681Z,19.00
2017-08-14T22:13:15.862Z,19.01
2017-08-14T22:15:45.051Z,19.03
2017-08-14T22:18:14.494Z,19.05
2017-08-14T22:20:44.034Z,18.89
2017-08-14T22:23:13.228Z,19.06
2017-08-14T22:25:42.779Z,19.01
2017-08-14T22:28:12.031Z,19.12
2017-08-14T22:30:42.734Z,18.90
2017-08-14T22:33:12.650Z,19.00
2017-08-14T22:35:45.103Z,19.21
2017-08-14T22:38:14.654Z,19.07
2017-08-14T22:40:43.962Z,19.06
2017-08-14T22:43:13.534Z,19.10
2017-08-14T22:45:44.738Z,19.28
2017-08-14T22:48:14.222Z,19.15
2017-08-14T22:50:44.171Z,19.16
2017-08-14T22:53:13.918Z,19.15
2017-08-14T22:55:43.083Z,19.23
2017-08-14T22:58:12.256Z,19.39
2017-08-14T23:00:49.687Z,19.53
2017-08-14T23:05:57.094Z,19.66
2017-08-14T23:08:26.302Z,19.58
2017-08-14T23:10:55.714Z,19.50
2017-08-14T23:13:25.786Z,19.37
2017-08-14T23:15:55.182Z,19.31
2017-08-14T23:18:24.615Z,19.11
2017-08-14T23:20:54.336Z,19.06
2017-08-14T23:23:23.919Z,18.67
2017-08-14T23:25:53.218Z,18.64
2017-08-14T23:28:23.057Z,18.69
2017-08-14T23:30:52.567Z,18.52
2017-08-14T23:33:21.914Z,18.37
2017-08-14T23:35:51.334Z,18.32
2017-08-14T23:38:20.487Z,18.25
2017-08-14T23:40:49.743Z,18.18
2017-08-14T23:43:19.227Z,18.38
2017-08-14T23:45:49.080Z,18.28
2017-08-14T23:48:22.495Z,18.00
2017-08-14T23:50:51.660Z,17.81
2017-08-14T23:53:20.918Z,17.77
2017-08-14T23:55:50.590Z,17.90
2017-08-14T23:58:19.871Z,17.76
